Time;durP1;ratioP1;P1;durP2;ratioP2;P2;SDS_P1;SDS_P2;PMS_P1;PMS_P2;Temp;Humidity;BMP_temperature;BMP_pressure;BME280_temperature;BME280_humidity;BME280_pressure;Samples;Min_cycle;Max_cycle;Signal;HPM_P1;HPM_P2
2022/10/27 00:00:42;;;;;;;15.63;9.00;;;;;;;7.38;86.54;98653.00;1673490;84;21428;-70
2022/10/27 00:03:15;;;;;;;15.25;9.18;;;;;;;7.36;86.57;98652.58;1653871;86;21046;-70
2022/10/27 00:05:43;;;;;;;13.55;8.90;;;;;;;7.37;86.80;98658.28;1663937;85;21010;-70
2022/10/27 00:08:17;;;;;;;15.88;9.30;;;;;;;7.35;86.82;98657.42;1671283;85;20995;-70
2022/10/27 00:10:44;;;;;;;14.73;8.80;;;;;;;7.35;86.91;98660.92;1676710;85;21049;-71
2022/10/27 00:13:13;;;;;;;12.30;8.85;;;;;;;7.38;87.41;98663.55;1687242;83;21013;-71
2022/10/27 00:15:40;;;;;;;12.03;8.53;;;;;;;7.42;87.27;98670.99;1695135;83;21444;-70
2022/10/27 00:18:11;;;;;;;16.32;9.43;;;;;;;7.41;87.13;98673.20;1693956;83;21029;-71
2022/10/27 00:20:40;;;;;;;15.40;8.78;;;;;;;7.39;87.20;98673.20;1687106;85;20963;-70
2022/10/27 00:23:07;;;;;;;17.40;9.25;;;;;;;7.44;87.51;98674.95;1701334;83;21489;-71
2022/10/27 00:25:33;;;;;;;15.35;8.88;;;;;;;7.56;87.94;98671.36;1674104;85;21003;-71
2022/10/27 00:28:00;;;;;;;16.50;8.50;;;;;;;7.66;87.95;98672.62;1686979;85;21432;-71
2022/10/27 00:30:26;;;;;;;15.18;9.03;;;;;;;7.76;87.73;98667.25;1687390;85;20998;-70
2022/10/27 00:32:53;;;;;;;12.85;8.03;;;;;;;7.80;87.72;98676.90;1687571;85;21038;-70
2022/10/27 00:35:20;;;;;;;14.83;8.55;;;;;;;7.84;87.75;98675.98;1679647;83;21408;-71
2022/10/27 00:37:47;;;;;;;15.13;8.35;;;;;;;7.92;88.03;98680.78;1686630;85;21058;-72
2022/10/27 00:40:14;;;;;;;12.18;7.87;;;;;;;7.99;87.80;98680.29;1687355;85;21002;-71
2022/10/27 00:42:41;;;;;;;10.28;7.50;;;;;;;8.03;87.80;98679.38;1687267;85;20998;-71
2022/10/27 00:45:08;;;;;;;14.68;8.88;;;;;;;8.09;88.17;98677.11;1670086;85;20998;-71
2022/10/27 00:47:36;;;;;;;14.03;8.28;;;;;;;8.11;88.00;98672.72;1687602;85;21430;-71
2022/10/27 00:50:17;;;;;;;14.23;8.08;;;;;;;8.19;88.05;98675.28;1687437;85;21422;-71
2022/10/27 00:52:47;;;;;;;15.75;8.20;;;;;;;8.25;88.09;98671.27;1687676;83;21002;-71
2022/10/27 00:55:30;;;;;;;16.48;7.60;;;;;;;8.33;88.04;98669.86;1687565;83;21355;-72
2022/10/27 00:58:01;;;;;;;18.50;8.50;;;;;;;8.37;87.91;98669.38;1687265;85;20977;-71
2022/10/27 01:00:30;;;;;;;15.75;8.48;;;;;;;8.37;87.62;98670.27;1687295;85;21006;-71
2022/10/27 01:02:57;;;;;;;14.70;9.15;;;;;;;8.39;87.87;98665.84;1675042;85;21041;-72
2022/10/27 01:05:27;;;;;;;14.87;8.05;;;;;;;8.42;87.64;98667.56;1687190;85;21010;-71
2022/10/27 01:07:59;;;;;;;14.03;8.60;;;;;;;8.43;87.53;98670.20;1687434;85;20962;-72
2022/10/27 01:10:26;;;;;;;13.50;8.43;;;;;;;8.43;87.42;98669.34;1687238;85;20994;-72
2022/10/27 01:12:55;;;;;;;16.05;9.18;;;;;;;8.41;87.06;98673.31;1670644;84;21028;-72
2022/10/27 01:15:28;;;;;;;14.87;9.25;;;;;;;8.39;87.18;98674.22;1675800;85;21439;-72
2022/10/27 01:18:14;;;;;;;17.50;9.70;;;;;;;8.37;87.04;98676.88;1663627;85;20997;-72
2022/10/27 01:21:13;;;;;;;18.82;9.25;;;;;;;8.36;87.08;98672.48;1686686;85;21065;-72
2022/10/27 01:24:11;;;;;;;13.60;8.55;;;;;;;8.35;87.20;98672.03;1685526;85;21077;-72
2022/10/27 01:26:53;;;;;;;13.75;8.63;;;;;;;8.36;87.23;98680.84;1684764;85;21046;-71
2022/10/27 01:29:40;;;;;;;12.70;8.70;;;;;;;8.39;87.15;98679.50;1675986;85;20958;-71
2022/10/27 01:32:19;;;;;;;13.62;8.43;;;;;;;8.39;86.96;98674.22;1687470;85;21085;-71
2022/10/27 01:35:11;;;;;;;15.83;9.00;;;;;;;8.36;86.75;98682.16;1687563;83;20994;-71
2022/10/27 01:37:46;;;;;;;13.78;8.80;;;;;;;8.36;86.75;98681.73;1672873;85;20988;-71
2022/10/27 01:40:23;;;;;;;15.85;9.65;;;;;;;8.32;86.59;98685.28;1663334;86;21098;-72
2022/10/27 01:43:10;;;;;;;14.58;8.70;;;;;;;8.32;86.85;98687.92;1648706;86;20967;-71
2022/10/27 01:45:38;;;;;;;15.13;9.23;;;;;;;8.30;86.98;98686.61;1649187;86;21063;-72
2022/10/27 01:48:09;;;;;;;15.95;9.83;;;;;;;8.29;87.04;98684.88;1665960;85;20998;-71
2022/10/27 01:50:39;;;;;;;16.67;9.53;;;;;;;8.29;86.76;98688.83;1667666;86;20963;-71
2022/10/27 01:53:06;;;;;;;15.65;9.43;;;;;;;8.27;86.75;98681.34;1667856;85;21023;-71
2022/10/27 01:55:56;;;;;;;13.22;9.30;;;;;;;8.27;86.78;98685.77;1667498;86;21003;-71
2022/10/27 01:58:48;;;;;;;13.85;8.38;;;;;;;8.28;86.64;98692.38;1664788;86;21059;-71
2022/10/27 02:01:35;;;;;;;17.65;9.73;;;;;;;8.28;87.16;98690.16;1661407;86;21018;-71
2022/10/27 02:04:28;;;;;;;13.60;9.30;;;;;;;8.28;87.11;98692.38;1658832;86;20991;-70
2022/10/27 02:07:13;;;;;;;14.60;9.48;;;;;;;8.26;87.08;98690.17;1658059;85;21015;-71
2022/10/27 02:09:54;;;;;;;15.60;10.28;;;;;;;8.26;86.92;98686.20;1642158;85;20972;-71
2022/10/27 02:12:34;;;;;;;20.68;9.73;;;;;;;8.28;86.70;98696.77;1667860;86;20991;-72
2022/10/27 02:15:06;;;;;;;15.28;9.85;;;;;;;8.27;86.98;98693.23;1656291;86;20990;-72
2022/10/27 02:17:41;;;;;;;18.48;10.30;;;;;;;8.28;87.00;98693.69;1667937;86;21003;-72
2022/10/27 02:20:11;;;;;;;;;;;;;;;8.29;87.00;98696.76;1661837;86;20951;-72
2022/10/27 02:22:38;;;;;;;15.45;9.33;;;;;;;8.30;87.02;98693.65;1667910;86;20346;-72
2022/10/27 02:25:08;;;;;;;13.98;8.65;;;;;;;8.29;87.15;98691.47;1666302;86;21444;-72
2022/10/27 02:27:43;;;;;;;15.43;9.20;;;;;;;8.31;87.02;98691.47;1684812;85;20991;-72
2022/10/27 02:30:14;;;;;;;16.10;9.18;;;;;;;8.31;86.90;98696.28;1684585;85;21543;-72
2022/10/27 02:32:41;;;;;;;16.10;10.78;;;;;;;8.30;86.96;98691.90;1684915;85;21023;-71
2022/10/27 02:35:11;;;;;;;17.02;10.72;;;;;;;8.31;86.83;98692.78;1692465;83;21403;-73
2022/10/27 02:37:41;;;;;;;14.60;8.93;;;;;;;8.29;87.20;98693.23;1663442;85;21482;-72
2022/10/27 02:40:10;;;;;;;16.25;9.48;;;;;;;8.26;87.21;98691.48;1685269;85;21412;-72
2022/10/27 02:42:37;;;;;;;13.72;9.38;;;;;;;8.28;87.34;98687.09;1685374;85;20966;-72
2022/10/27 02:45:04;;;;;;;13.60;9.25;;;;;;;8.34;87.15;98687.92;1668811;85;21009;-72
2022/10/27 02:47:31;;;;;;;13.85;8.53;;;;;;;8.38;86.90;98685.69;1685150;85;21097;-72
2022/10/27 02:49:57;;;;;;;15.32;8.15;;;;;;;8.38;86.89;98692.29;1685197;85;21423;-72
2022/10/27 02:52:24;;;;;;;13.78;8.33;;;;;;;8.41;87.05;98685.63;1685023;85;21006;-72
2022/10/27 02:54:53;;;;;;;14.45;8.68;;;;;;;8.47;87.00;98684.71;1670452;85;20994;-72
2022/10/27 02:57:19;;;;;;;16.12;8.73;;;;;;;8.51;87.22;98683.33;1682581;85;21022;-72
2022/10/27 02:59:47;;;;;;;13.83;7.85;;;;;;;8.56;87.27;98682.87;1685031;85;21074;-72
2022/10/27 03:02:15;;;;;;;13.70;7.80;;;;;;;8.62;87.13;98693.83;1668039;85;21014;-72
2022/10/27 03:04:41;;;;;;;14.33;8.63;;;;;;;8.65;87.75;98688.96;1677185;85;21021;-71
2022/10/27 03:07:09;;;;;;;14.78;7.95;;;;;;;8.71;87.70;98690.20;1685167;85;20982;-71
2022/10/27 03:09:35;;;;;;;13.18;7.47;;;;;;;8.75;87.48;98691.07;1684713;85;21033;-71
2022/10/27 03:12:02;;;;;;;11.68;8.08;;;;;;;8.74;87.48;98699.44;1680025;85;21066;-72
2022/10/27 03:14:31;;;;;;;11.28;7.62;;;;;;;8.81;87.62;98701.10;1665515;85;20999;-72
2022/10/27 03:16:57;;;;;;;10.45;7.50;;;;;;;8.82;87.26;98701.98;1673358;85;21051;-72
2022/10/27 03:19:24;;;;;;;18.90;7.78;;;;;;;8.84;87.33;98709.01;1679351;83;21047;-72
2022/10/27 03:21:50;;;;;;;12.60;7.25;;;;;;;8.90;87.60;98702.80;1677967;84;21031;-72
2022/10/27 03:24:16;;;;;;;11.68;7.65;;;;;;;8.94;87.32;98714.20;1681288;84;21046;-72
2022/10/27 03:26:45;;;;;;;13.85;8.18;;;;;;;9.00;87.64;98710.16;1673569;85;21005;-72
2022/10/27 03:29:11;;;;;;;11.35;8.20;;;;;;;9.00;87.36;98710.16;1673385;84;21002;-71
2022/10/27 03:31:40;;;;;;;12.70;8.18;;;;;;;9.02;87.13;98721.61;1673434;85;21011;-72
2022/10/27 03:34:07;;;;;;;13.00;7.55;;;;;;;9.04;87.14;98714.95;1677569;84;21011;-72
2022/10/27 03:36:35;;;;;;;13.00;7.50;;;;;;;9.08;87.35;98718.88;1673512;86;20963;-72
2022/10/27 03:39:01;;;;;;;11.40;7.65;;;;;;;9.12;87.23;98717.06;1673491;85;21022;-72
2022/10/27 03:41:29;;;;;;;14.25;8.68;;;;;;;9.12;86.97;98722.36;1673526;85;20967;-72
2022/10/27 03:43:56;;;;;;;15.18;8.05;;;;;;;9.10;86.75;98718.41;1671864;85;20987;-71
2022/10/27 03:46:23;;;;;;;21.82;9.33;;;;;;;9.11;86.55;98721.47;1662419;85;20963;-72
2022/10/27 03:48:54;;;;;;;12.35;8.13;;;;;;;9.05;86.35;98723.34;1673431;86;21417;-72
2022/10/27 03:51:22;;;;;;;14.98;8.43;;;;;;;9.02;86.53;98716.75;1673577;84;21018;-71
2022/10/27 03:53:48;;;;;;;14.75;8.08;;;;;;;8.95;86.25;98720.80;1673068;84;21031;-72
2022/10/27 03:56:15;;;;;;;12.80;7.70;;;;;;;8.93;86.18;98721.70;1658810;86;21036;-71
2022/10/27 03:58:43;;;;;;;13.85;8.35;;;;;;;8.90;86.26;98729.66;1673379;84;21003;-72
2022/10/27 04:01:10;;;;;;;14.38;8.88;;;;;;;8.88;86.25;98728.34;1668416;85;21115;-71
2022/10/27 04:03:37;;;;;;;12.58;8.53;;;;;;;8.85;86.43;98723.97;1659781;85;21038;-71
2022/10/27 04:06:04;;;;;;;21.55;9.08;;;;;;;8.82;86.51;98726.67;1670287;85;21014;-72
2022/10/27 04:08:32;;;;;;;14.13;8.78;;;;;;;8.73;86.70;98721.47;1673307;84;21058;-71
2022/10/27 04:10:58;;;;;;;13.58;8.58;;;;;;;8.68;86.29;98726.79;1673559;85;20983;-71
2022/10/27 04:13:24;;;;;;;12.95;8.95;;;;;;;8.61;86.30;98735.69;1679246;85;20962;-72
2022/10/27 04:15:51;;;;;;;13.03;8.55;;;;;;;8.56;86.49;98732.21;1687289;85;20954;-71
2022/10/27 04:18:18;;;;;;;12.68;8.58;;;;;;;8.53;86.82;98733.12;1687707;85;20973;-71
2022/10/27 04:20:45;;;;;;;13.20;9.00;;;;;;;8.49;86.64;98739.72;1685499;85;21006;-71
2022/10/27 04:23:12;;;;;;;11.75;9.03;;;;;;;8.43;86.57;98734.92;1683467;85;21396;-71
2022/10/27 04:25:38;;;;;;;13.78;9.03;;;;;;;8.38;86.71;98743.33;1687774;85;21017;-71
2022/10/27 04:28:07;;;;;;;16.60;9.85;;;;;;;8.35;86.48;98747.77;1687620;85;21005;-72
2022/10/27 04:30:34;;;;;;;15.80;10.20;;;;;;;8.30;87.23;98753.07;1687410;85;21029;-72
2022/10/27 04:33:01;;;;;;;14.20;9.40;;;;;;;8.26;86.92;98754.87;1679434;85;20993;-72
2022/10/27 04:35:28;;;;;;;15.80;9.45;;;;;;;8.23;86.85;98752.27;1687235;85;21057;-72
2022/10/27 04:37:56;;;;;;;16.48;8.98;;;;;;;8.21;86.99;98755.35;1687652;85;21444;-72
2022/10/27 04:40:23;;;;;;;14.93;9.05;;;;;;;8.20;86.87;98758.89;1687551;85;21042;-71
2022/10/27 04:42:50;;;;;;;15.30;9.90;;;;;;;8.18;86.93;98760.67;1667040;85;21029;-72
2022/10/27 04:45:16;;;;;;;14.40;9.65;;;;;;;8.16;86.93;98758.47;1679962;85;21482;-72
2022/10/27 04:47:44;;;;;;;15.83;11.20;;;;;;;8.17;87.21;98764.17;1672331;85;21313;-72
2022/10/27 04:50:12;;;;;;;15.85;10.75;;;;;;;8.18;87.17;98765.95;1687307;85;20982;-72
2022/10/27 04:52:40;;;;;;;18.90;11.30;;;;;;;8.18;87.02;98766.81;1664601;84;20978;-71
2022/10/27 04:55:09;;;;;;;12.95;10.25;;;;;;;8.18;87.27;98760.21;1659622;85;21025;-71
2022/10/27 04:57:39;;;;;;;14.87;11.08;;;;;;;8.17;87.55;98763.75;1659682;85;21443;-72
2022/10/27 05:00:08;;;;;;;17.92;11.35;;;;;;;8.18;87.26;98769.92;1672395;85;21022;-73
2022/10/27 05:02:34;;;;;;;19.02;12.47;;;;;;;8.17;87.21;98770.34;1662233;85;20982;-73
2022/10/27 05:05:01;;;;;;;20.68;12.75;;;;;;;8.16;87.21;98769.03;1686540;85;20970;-72
2022/10/27 05:07:27;;;;;;;24.47;15.25;;;;;;;8.16;87.23;98782.23;1686485;85;21010;-72
2022/10/27 05:09:55;;;;;;;15.80;10.85;;;;;;;8.14;87.42;98771.68;1684957;85;21124;-72
2022/10/27 05:12:21;;;;;;;17.77;11.75;;;;;;;8.14;87.31;98775.64;1684509;85;21034;-73
2022/10/27 05:14:48;;;;;;;19.55;12.90;;;;;;;8.16;87.79;98771.24;1673321;85;20970;-72
2022/10/27 05:17:15;;;;;;;20.90;13.30;;;;;;;8.23;87.61;98772.51;1673371;85;21385;-72
2022/10/27 05:19:43;;;;;;;22.75;15.48;;;;;;;8.26;87.54;98779.95;1668830;85;20986;-72
2022/10/27 05:22:13;;;;;;;22.25;15.23;;;;;;;8.29;87.77;98781.70;1673461;85;21062;-72
2022/10/27 05:24:42;;;;;;;27.42;17.10;;;;;;;8.32;87.81;98782.54;1672891;85;21107;-73
2022/10/27 05:27:09;;;;;;;30.15;18.32;;;;;;;8.36;87.98;98787.81;1673275;85;21047;-72
2022/10/27 05:29:36;;;;;;;27.00;17.55;;;;;;;8.38;88.09;98786.05;1667679;84;20986;-72
2022/10/27 05:32:04;;;;;;;32.25;18.37;;;;;;;8.41;88.16;98791.30;1659123;84;21022;-72
2022/10/27 05:34:33;;;;;;;29.18;18.42;;;;;;;8.47;88.50;98788.59;1672380;84;21138;-72
2022/10/27 05:37:02;;;;;;;32.73;18.48;;;;;;;8.53;88.35;98795.20;1647492;84;21041;-71
2022/10/27 05:39:29;;;;;;;28.62;17.57;;;;;;;8.53;88.30;98800.48;1647615;85;21066;-72
2022/10/27 05:41:55;;;;;;;31.87;17.52;;;;;;;8.53;88.46;98799.17;1646836;84;21098;-72
2022/10/27 05:44:23;;;;;;;30.02;18.65;;;;;;;8.54;88.51;98799.59;1621035;87;21433;-72
2022/10/27 05:46:51;;;;;;;29.35;16.93;;;;;;;8.61;88.83;98803.49;1645813;85;21528;-72
2022/10/27 05:49:18;;;;;;;26.23;17.05;;;;;;;8.68;88.96;98801.25;1647502;85;20998;-72
2022/10/27 05:51:45;;;;;;;25.52;16.87;;;;;;;8.73;88.78;98811.77;1653716;85;21042;-72
2022/10/27 05:54:12;;;;;;;30.02;18.02;;;;;;;8.77;88.80;98813.49;1639671;86;21073;-72
2022/10/27 05:56:39;;;;;;;25.88;16.90;;;;;;;8.80;88.38;98818.77;1646334;85;21046;-72
2022/10/27 05:59:06;;;;;;;28.02;16.87;;;;;;;8.75;88.61;98817.93;1646130;85;20982;-72
2022/10/27 06:01:33;;;;;;;27.35;17.20;;;;;;;8.79;88.75;98820.95;1630346;86;21027;-72
2022/10/27 06:04:00;;;;;;;27.40;17.62;;;;;;;8.83;88.94;98824.89;1639422;87;21003;-72
2022/10/27 06:06:27;;;;;;;21.25;16.50;;;;;;;8.86;88.85;98822.66;1668204;86;22105;-70
2022/10/27 06:08:55;;;;;;;26.65;17.87;;;;;;;8.88;88.82;98832.77;1668390;85;20987;-70
2022/10/27 06:11:22;;;;;;;28.83;17.75;;;;;;;8.97;88.95;98830.50;1650667;84;21357;-70
2022/10/27 06:13:50;;;;;;;24.45;17.12;;;;;;;9.04;88.90;98840.11;1664127;83;21053;-70
2022/10/27 06:16:20;;;;;;;30.62;18.80;;;;;;;9.06;88.85;98834.81;1673659;83;21033;-71
2022/10/27 06:18:48;;;;;;;28.00;18.00;;;;;;;9.10;88.67;98829.94;1663315;83;21069;-70
2022/10/27 06:21:15;;;;;;;29.70;19.23;;;;;;;9.13;88.67;98832.52;1666102;84;20954;-71
2022/10/27 06:23:45;;;;;;;34.30;18.27;;;;;;;9.17;88.56;98836.04;1666154;83;21040;-71
2022/10/27 06:26:12;;;;;;;28.17;18.50;;;;;;;9.23;88.64;98836.82;1659557;84;21423;-71
2022/10/27 06:28:43;;;;;;;29.32;20.35;;;;;;;9.30;88.59;98831.49;1640769;85;21014;-72
2022/10/27 06:31:09;;;;;;;33.38;21.50;;;;;;;9.34;88.26;98828.78;1659914;84;20986;-71
2022/10/27 06:33:36;;;;;;;36.28;21.30;;;;;;;9.40;88.14;98829.60;1662838;84;21467;-70
2022/10/27 06:36:03;;;;;;;38.30;21.25;;;;;;;9.43;88.04;98841.02;1672302;85;20985;-70
2022/10/27 06:38:29;;;;;;;37.00;22.30;;;;;;;9.48;88.06;98835.23;1663259;85;21010;-70
2022/10/27 06:40:56;;;;;;;33.35;21.27;;;;;;;9.53;87.82;98835.63;1665139;84;21013;-70
2022/10/27 06:43:23;;;;;;;34.80;21.42;;;;;;;9.56;87.61;98833.84;1659237;85;21447;-70
2022/10/27 06:45:49;;;;;;;30.60;21.23;;;;;;;9.59;87.62;98844.38;1668247;84;21065;-71
2022/10/27 06:48:16;;;;;;;35.90;21.12;;;;;;;9.62;87.45;98840.38;1664663;85;20962;-70
2022/10/27 06:50:44;;;;;;;35.70;20.37;;;;;;;9.64;87.16;98841.69;1660318;84;20966;-71
2022/10/27 06:53:10;;;;;;;36.85;21.07;;;;;;;9.66;87.13;98840.32;1659540;84;20981;-71
2022/10/27 06:55:36;;;;;;;38.88;21.10;;;;;;;9.70;87.15;98842.04;1640586;86;20971;-71
2022/10/27 06:58:06;;;;;;;31.30;20.48;;;;;;;9.75;87.13;98841.53;1641162;85;20959;-71
2022/10/27 07:00:35;;;;;;;30.95;20.48;;;;;;;9.77;86.93;98837.11;1639850;86;21007;-72
2022/10/27 07:03:09;;;;;;;35.88;21.12;;;;;;;9.82;87.00;98847.63;1678896;85;21021;-71
2022/10/27 07:05:36;;;;;;;36.30;19.42;;;;;;;9.83;87.02;98842.32;1687310;85;20994;-71
2022/10/27 07:08:03;;;;;;;38.05;20.20;;;;;;;9.85;87.01;98844.95;1686574;85;21018;-71
2022/10/27 07:10:34;;;;;;;31.20;19.25;;;;;;;9.88;86.94;98838.27;1687237;85;21064;-71
2022/10/27 07:13:03;;;;;;;33.25;19.90;;;;;;;9.88;86.78;98839.16;1673975;85;21073;-71
2022/10/27 07:15:35;;;;;;;29.87;19.30;;;;;;;9.89;86.79;98830.32;1660574;85;21034;-71
2022/10/27 07:18:06;;;;;;;31.95;20.95;;;;;;;9.91;86.76;98830.30;1673200;85;20975;-71
2022/10/27 07:20:34;;;;;;;37.28;19.10;;;;;;;9.93;86.66;98842.20;1673224;85;21448;-71
2022/10/27 07:23:02;;;;;;;35.05;19.02;;;;;;;9.94;86.69;98848.81;1671719;85;21014;-71
2022/10/27 07:25:32;;;;;;;33.75;18.70;;;;;;;9.98;86.74;98843.91;1672808;86;20994;-72
2022/10/27 07:28:02;;;;;;;34.27;20.40;;;;;;;10.00;86.79;98842.53;1655639;84;21058;-73
2022/10/27 07:30:33;;;;;;;30.15;18.95;;;;;;;10.04;86.72;98849.55;1645762;84;21034;-73
2022/10/27 07:33:04;;;;;;;31.40;18.52;;;;;;;10.09;86.68;98850.36;1647645;85;21014;-76
2022/10/27 07:35:33;;;;;;;38.17;21.90;;;;;;;10.13;86.65;98849.42;1663510;84;21749;-75
2022/10/27 07:37:59;;;;;;;30.77;20.05;;;;;;;10.19;86.63;98853.77;1648189;85;21010;-76
2022/10/27 07:40:27;;;;;;;27.85;18.07;;;;;;;10.23;86.57;98850.62;1646767;86;20959;-76
2022/10/27 07:42:55;;;;;;;27.55;18.73;;;;;;;10.27;86.55;98851.00;1646144;86;21481;-77
2022/10/27 07:45:24;;;;;;;30.30;18.23;;;;;;;10.32;86.55;98850.92;1646248;84;20986;-74
2022/10/27 07:47:55;;;;;;;30.65;18.10;;;;;;;10.36;86.52;98852.64;1623078;87;21031;-72
2022/10/27 07:50:31;;;;;;;27.90;18.27;;;;;;;10.42;86.46;98856.51;1622406;87;21055;-73
2022/10/27 07:52:57;;;;;;;29.05;18.62;;;;;;;10.47;86.44;98851.19;1645636;85;21095;-72
2022/10/27 07:55:26;;;;;;;30.08;18.55;;;;;;;10.54;86.43;98855.05;1646702;85;21018;-73
2022/10/27 07:58:15;;;;;;;28.20;19.40;;;;;;;10.62;86.46;98856.25;1647851;85;21082;-72
2022/10/27 08:00:45;;;;;;;29.40;18.37;;;;;;;10.69;86.46;98852.61;1649408;84;21432;-78
2022/10/27 08:03:22;;;;;;;43.15;22.42;;;;;;;10.81;86.45;98860.78;1654789;85;21007;-77
2022/10/27 08:05:48;;;;;;;43.02;22.73;;;;;;;10.91;86.32;98860.20;1654359;84;21061;-79
2022/10/27 08:08:16;;;;;;;42.15;21.70;;;;;;;11.03;86.15;98857.78;1622677;87;21484;-78
2022/10/27 08:10:49;;;;;;;46.02;24.30;;;;;;;11.15;85.87;98863.33;1621013;87;21080;-81
2022/10/27 08:13:16;;;;;;;41.80;21.82;;;;;;;11.26;85.55;98859.16;1652290;84;21068;-77
2022/10/27 08:15:43;;;;;;;44.80;23.12;;;;;;;11.38;85.63;98858.50;1659411;85;21025;-77
2022/10/27 08:18:12;;;;;;;42.50;22.37;;;;;;;11.51;85.44;98858.70;1661680;85;21518;-75
2022/10/27 08:20:45;;;;;;;40.40;20.88;;;;;;;11.65;85.28;98859.74;1658582;85;21065;-75
2022/10/27 08:23:17;;;;;;;46.73;21.50;;;;;;;11.79;85.10;98858.59;1659026;85;21025;-79
2022/10/27 08:25:44;;;;;;;42.30;21.62;;;;;;;11.88;84.71;98857.08;1664820;85;21442;-78
2022/10/27 08:28:13;;;;;;;43.65;22.02;;;;;;;11.99;84.19;98865.69;1657734;85;21009;-77
2022/10/27 08:30:41;;;;;;;38.38;23.27;;;;;;;12.10;83.96;98872.58;1659398;85;21428;-76
2022/10/27 08:33:09;;;;;;;46.45;21.93;;;;;;;12.22;84.00;98877.64;1667410;85;20990;-76
2022/10/27 08:35:36;;;;;;;42.38;21.50;;;;;;;12.33;83.63;98868.55;1660148;85;22079;-76
2022/10/27 08:38:07;;;;;;;36.80;21.05;;;;;;;12.44;83.61;98866.95;1661498;85;21029;-77
2022/10/27 08:40:51;;;;;;;47.85;22.40;;;;;;;12.52;83.25;98861.89;1634107;86;21494;-79
2022/10/27 08:44:06;;;;;;;39.80;19.95;;;;;;;12.58;82.48;98863.52;1640883;86;21106;-76
2022/10/27 08:46:41;;;;;;;41.75;22.25;;;;;;;12.67;82.28;98867.77;1655135;85;21083;-77
2022/10/27 08:49:31;;;;;;;37.42;20.25;;;;;;;12.73;81.36;98864.94;1651899;86;21033;-76
2022/10/27 08:52:29;;;;;;;35.73;18.07;;;;;;;12.79;81.78;98869.25;1642008;86;21037;-76
2022/10/27 08:55:23;;;;;;;33.33;16.95;;;;;;;12.80;81.46;98867.85;1668881;84;21053;-76
2022/10/27 08:58:06;;;;;;;26.40;16.90;;;;;;;12.82;80.90;98865.16;1668776;84;20986;-75
2022/10/27 09:00:41;;;;;;;24.97;15.17;;;;;;;12.91;80.95;98872.03;1659964;84;21029;-75
2022/10/27 09:03:33;;;;;;;27.87;15.38;;;;;;;12.91;80.95;98872.03;1647290;85;21010;-75
2022/10/27 09:06:24;;;;;;;24.67;15.08;;;;;;;12.98;80.42;98872.75;1641398;84;21456;-74
2022/10/27 09:09:16;;;;;;;25.95;15.32;;;;;;;13.02;80.54;98875.31;1640613;85;21011;-74
2022/10/27 09:11:55;;;;;;;23.47;15.48;;;;;;;13.06;80.25;98882.31;1640748;85;21014;-73
2022/10/27 09:14:35;;;;;;;26.77;15.00;;;;;;;13.08;79.96;98879.59;1659882;84;21025;-74
2022/10/27 09:17:15;;;;;;;20.25;13.95;;;;;;;13.13;79.73;98876.83;1637320;84;21515;-75
2022/10/27 09:19:50;;;;;;;22.67;14.78;;;;;;;13.17;79.41;98881.16;1659100;85;21014;-75
2022/10/27 09:22:19;;;;;;;21.82;15.25;;;;;;;13.26;79.69;98882.25;1659186;85;21009;-76
2022/10/27 09:25:02;;;;;;;23.40;15.15;;;;;;;13.31;79.28;98874.13;1659260;85;20978;-75
2022/10/27 09:27:30;;;;;;;26.33;15.45;;;;;;;13.38;79.20;98882.39;1672568;85;21026;-77
2022/10/27 09:30:03;;;;;;;24.18;14.85;;;;;;;13.43;78.87;98882.25;1664414;84;21038;-75
2022/10/27 09:32:33;;;;;;;21.52;15.10;;;;;;;13.49;78.53;98877.26;1661615;85;21042;-75
2022/10/27 09:35:05;;;;;;;22.25;15.23;;;;;;;13.58;78.50;98881.86;1664615;85;20989;-75
2022/10/27 09:37:40;;;;;;;23.75;14.50;;;;;;;13.66;78.22;98873.66;1660067;85;21407;-76
2022/10/27 09:40:16;;;;;;;18.75;13.75;;;;;;;13.70;77.96;98869.98;1663234;84;20982;-75
2022/10/27 09:42:44;;;;;;;21.00;14.55;;;;;;;13.71;76.48;98870.40;1629808;85;21403;-76
2022/10/27 09:45:22;;;;;;;19.57;12.58;;;;;;;13.77;77.71;98869.36;1642236;85;21006;-76
2022/10/27 09:47:56;;;;;;;23.75;11.88;;;;;;;13.84;77.01;98877.58;1644273;85;21018;-76
2022/10/27 09:50:35;;;;;;;18.10;12.30;;;;;;;13.92;76.36;98869.39;1640883;86;21068;-75
2022/10/27 09:53:03;;;;;;;17.87;11.20;;;;;;;14.05;76.66;98872.56;1650524;86;20975;-75
2022/10/27 09:55:52;;;;;;;17.90;11.30;;;;;;;14.18;75.07;98871.73;1661020;85;21002;-75
2022/10/27 09:58:20;;;;;;;22.65;11.18;;;;;;;14.37;72.58;98865.84;1640562;86;21015;-75
2022/10/27 10:00:59;;;;;;;15.68;10.32;;;;;;;14.61;74.45;98864.17;1640730;86;20998;-75
2022/10/27 10:03:27;;;;;;;18.00;11.33;;;;;;;14.76;74.04;98865.52;1645132;86;21022;-76
2022/10/27 10:06:00;;;;;;;16.25;10.72;;;;;;;14.89;72.89;98863.77;1659954;86;20983;-76
2022/10/27 10:08:30;;;;;;;14.33;9.75;;;;;;;14.99;73.57;98857.67;1667908;85;21014;-76
2022/10/27 10:11:01;;;;;;;15.40;9.78;;;;;;;15.15;72.08;98860.66;1667830;85;20994;-76
2022/10/27 10:13:31;;;;;;;15.40;9.95;;;;;;;15.29;71.27;98862.39;1661959;86;21050;-77
2022/10/27 10:16:14;;;;;;;17.70;10.18;;;;;;;15.37;69.50;98855.45;1660647;86;21053;-76
2022/10/27 10:18:46;;;;;;;14.35;9.53;;;;;;;15.50;70.65;98859.03;1666286;85;21448;-77
2022/10/27 10:21:14;;;;;;;14.73;9.33;;;;;;;15.54;69.62;98856.18;1656386;85;21086;-77
2022/10/27 10:23:53;;;;;;;16.23;10.23;;;;;;;15.57;69.45;98849.84;1641667;85;21054;-78
2022/10/27 10:26:28;;;;;;;15.93;10.35;;;;;;;15.62;69.81;98849.25;1640582;86;20991;-76
2022/10/27 10:29:08;;;;;;;17.48;10.90;;;;;;;15.80;69.75;98841.01;1640342;86;21488;-76
2022/10/27 10:31:35;;;;;;;17.02;10.18;;;;;;;16.61;67.88;98841.06;1640762;86;21054;-76
2022/10/27 10:34:10;;;;;;;10.90;8.18;;;;;;;17.75;63.75;98837.13;1666719;84;20989;-76
2022/10/27 10:36:39;;;;;;;10.15;7.67;;;;;;;18.79;62.91;98831.83;1638146;86;21018;-76
2022/10/27 10:39:25;;;;;;;12.50;8.00;;;;;;;19.65;58.72;98829.70;1640806;86;20998;-78
2022/10/27 10:42:12;;;;;;;12.23;9.10;;;;;;;20.67;61.12;98823.20;1638006;84;21057;-78
2022/10/27 10:44:41;;;;;;;16.02;9.28;;;;;;;21.63;55.25;98821.16;1653893;86;20983;-78
2022/10/27 10:47:27;;;;;;;13.30;9.60;;;;;;;22.24;50.59;98816.92;1655820;85;21416;-78
2022/10/27 10:49:58;;;;;;;11.30;9.70;;;;;;;22.97;49.80;98808.60;1640451;86;21055;-78
2022/10/27 10:52:36;;;;;;;13.10;10.00;;;;;;;23.66;51.65;98803.94;1640454;86;21133;-79
2022/10/27 10:55:25;;;;;;;12.93;9.93;;;;;;;24.13;45.03;98802.36;1665542;84;20985;-79
2022/10/27 10:57:56;;;;;;;14.25;10.30;;;;;;;24.83;48.82;98803.15;1640810;85;21043;-78
2022/10/27 11:00:23;;;;;;;14.58;9.98;;;;;;;25.46;47.31;98806.07;1659573;84;21081;-79
2022/10/27 11:03:03;;;;;;;12.80;9.70;;;;;;;25.88;45.36;98806.88;1660454;84;20997;-78
2022/10/27 11:05:33;;;;;;;11.25;9.00;;;;;;;26.45;44.87;98795.10;1659686;84;20982;-78
2022/10/27 11:08:00;;;;;;;10.03;8.15;;;;;;;27.03;41.90;98800.73;1675104;84;20998;-78
2022/10/27 11:10:35;;;;;;;12.68;8.40;;;;;;;27.52;40.43;98803.77;1659748;84;21483;-78
2022/10/27 11:13:07;;;;;;;10.50;7.33;;;;;;;27.90;40.35;98801.92;1643365;86;21074;-78
2022/10/27 11:15:45;;;;;;;13.80;7.40;;;;;;;28.09;39.81;98798.88;1649169;85;21050;-78
2022/10/27 11:18:17;;;;;;;10.82;6.83;;;;;;;27.96;38.71;98804.09;1665527;84;20998;-76
2022/10/27 11:20:49;;;;;;;9.45;6.53;;;;;;;28.54;37.12;98802.56;1665473;85;21050;-76
2022/10/27 11:23:20;;;;;;;11.63;6.72;;;;;;;28.81;37.85;98805.61;1654221;84;21015;-78
2022/10/27 11:25:47;;;;;;;9.73;7.37;;;;;;;28.96;37.11;98801.96;1660506;84;21050;-77
2022/10/27 11:28:49;;;;;;;6.87;5.83;;;;;;;28.99;37.00;98797.59;1660602;84;21100;-77
2022/10/27 11:31:47;;;;;;;9.33;6.00;;;;;;;29.36;36.24;98795.45;1661821;84;21066;-77
2022/10/27 11:34:40;;;;;;;8.73;7.00;;;;;;;28.71;34.75;98801.00;1654328;85;21495;-79
2022/10/27 11:37:27;;;;;;;12.07;6.30;;;;;;;28.37;35.27;98793.20;1672131;86;21451;-80
2022/10/27 11:40:10;;;;;;;8.43;6.20;;;;;;;28.16;35.26;98795.50;1673618;85;21428;-79
2022/10/27 11:43:02;;;;;;;10.78;6.55;;;;;;;27.68;35.95;98795.64;1672679;84;21007;-78
2022/10/27 11:45:43;;;;;;;9.43;6.60;;;;;;;27.57;37.90;98794.34;1657798;84;21467;-78
2022/10/27 11:48:24;;;;;;;10.75;5.50;;;;;;;27.12;35.44;98793.63;1646297;85;21087;-78